WetterOnline ( https://www.wetteronline.at )

Wetter aktuell Schenefeld

Aktuelles Wetter: Quickborn (17m)

6-stündlich | Neueste Meldungen
Ortszeit Temperatur Wetter
Fr, 20.09. 8:00 8.5° C bedeckt
Fr, 20.09. 2:00 3.9° C Nebel
Do, 19.09. 20:00 11.1° C wolkig
Do, 19.09. 14:00 13.8° C bewölkt
Do, 19.09. 8:00 4.7° C leicht bewölkt
Do, 19.09. 2:00 7.6° C leicht bewölkt
Mi, 18.09. 20:00 10.7° C leicht bewölkt
Mi, 18.09. 14:00 14.2° C wolkig
Ortszeit Temperatur Wetter
Fr, 20.09. 13:00 15.1° C bedeckt
Fr, 20.09. 12:50 15.1° C bedeckt
Fr, 20.09. 12:40 14.9° C bedeckt
Fr, 20.09. 12:30 14.9° C bedeckt
Fr, 20.09. 12:20 14.9° C bedeckt
Fr, 20.09. 12:10 14.4° C bedeckt
Fr, 20.09. 12:00 13.9° C bedeckt
Fr, 20.09. 11:30 13.0° C bedeckt
Fr, 20.09. 11:00 11.9° C bedeckt
Fr, 20.09. 10:30 11.1° C bedeckt
Fr, 20.09. 10:00 10.5° C bedeckt
Ortszeit Relative Feuchte Sichtweite
Fr, 20.09. 8:00 95% 26 km
Fr, 20.09. 2:00 98% 0.5 km
Do, 19.09. 20:00 73% 40 km
Do, 19.09. 14:00 62% 45 km
Do, 19.09. 8:00 99% 5.0 km
Do, 19.09. 2:00 90% 30 km
Mi, 18.09. 20:00 68% 40 km
Mi, 18.09. 14:00 50% 45 km
Ortszeit Relative Feuchte Sichtweite
Fr, 20.09. 13:00 73% 65 km
Fr, 20.09. 12:50 73% -
Fr, 20.09. 12:40 73% -
Fr, 20.09. 12:30 74% 55 km
Fr, 20.09. 12:20 74% -
Fr, 20.09. 12:10 75% -
Fr, 20.09. 12:00 77% 45 km
Fr, 20.09. 11:30 81% 45 km
Fr, 20.09. 11:00 87% 35 km
Fr, 20.09. 10:30 88% 29 km
Fr, 20.09. 10:00 89% 24 km
Ortszeit Niederschlagsmenge Niederschlagsart
Fr, 20.09. 8:00 0.0 l/m2 in 12 Std. -
Fr, 20.09. 2:00 0.0 l/m2 in 6 Std. -
Do, 19.09. 20:00 0.1 l/m2 in 12 Std. Sprühregen
Do, 19.09. 14:00 0.1 l/m2 in 6 Std. Regen
Do, 19.09. 8:00 0.1 l/m2 in 12 Std. -
Do, 19.09. 2:00 0.1 l/m2 in 6 Std. Regen
Mi, 18.09. 20:00 0.1 l/m2 in 12 Std. Regen
Mi, 18.09. 14:00 0.1 l/m2 in 6 Std. Regen
Ortszeit Niederschlagsmenge Niederschlagsart
Fr, 20.09. 13:00 0.0 l/m2 in 1 Std. -
Fr, 20.09. 12:50 keine Meldung -
Fr, 20.09. 12:40 keine Meldung -
Fr, 20.09. 12:30 0.0 l/m2 in 1 Std. -
Fr, 20.09. 12:20 keine Meldung -
Fr, 20.09. 12:10 keine Meldung -
Fr, 20.09. 12:00 0.0 l/m2 in 1 Std. -
Fr, 20.09. 11:30 0.0 l/m2 in 1 Std. -
Fr, 20.09. 11:00 0.0 l/m2 in 1 Std. -
Fr, 20.09. 10:30 0.0 l/m2 in 1 Std. -
Fr, 20.09. 10:00 0.0 l/m2 in 1 Std. -
Ortszeit Stärke Spitze Richtung
km/h Bft. km/h Grad Sektor
Fr, 20.09. 8:00 4 1 7 230° SW
Fr, 20.09. 2:00 4 1 11 180° S
Do, 19.09. 20:00 7 2 31 310° NW
Do, 19.09. 14:00 11 2 29 320° NW
Do, 19.09. 8:00 0 0 11 - -
Do, 19.09. 2:00 4 1 22 270° W
Mi, 18.09. 20:00 11 2 47 300° NW
Mi, 18.09. 14:00 22 4 41 300° NW
Ortszeit Stärke Spitze Richtung
km/h Bft. km/h Grad Sektor
Fr, 20.09. 13:00 11 2 22 270° W
Fr, 20.09. 12:50 11 2 - 270° W
Fr, 20.09. 12:40 13 3 - 260° W
Fr, 20.09. 12:30 9 2 19 270° W
Fr, 20.09. 12:20 9 2 - 270° W
Fr, 20.09. 12:10 11 2 - 260° W
Fr, 20.09. 12:00 9 2 19 260° W
Fr, 20.09. 11:30 9 2 15 230° SW
Fr, 20.09. 11:00 7 2 14 220° SW
Fr, 20.09. 10:30 7 2 11 220° SW
Fr, 20.09. 10:00 6 1 11 230° SW
Ortszeit Untergrenze Bedeckung Gattung
total tief tief mittel hoch
Fr, 20.09. 8:00 1050 m 8/8 8/8 - - -
Fr, 20.09. 2:00 7800 m 8/8 0/8 - - -
Do, 19.09. 20:00 1260 m 7/8 1/8 - - -
Do, 19.09. 14:00 960 m 7/8 7/8 - - -
Do, 19.09. 8:00 1500 m 5/8 1/8 - - -
Do, 19.09. 2:00 8100 m 6/8 0/8 - - -
Mi, 18.09. 20:00 1800 m 2/8 2/8 - - -
Mi, 18.09. 14:00 1320 m 6/8 6/8 - - -
Ortszeit Bedeckungsgrad in Achtel und Wolkenuntergrenze
Fr, 20.09. 13:00 4(600m) 8(1350m)
Fr, 20.09. 12:50 4(600m) 8(1350m)
Fr, 20.09. 12:40 3(570m) 8(1350m)
Fr, 20.09. 12:30 8(1320m)
Fr, 20.09. 12:20 8(1320m)
Fr, 20.09. 12:10 8(1290m)
Fr, 20.09. 12:00 8(1290m)
Fr, 20.09. 11:30 8(1260m)
Fr, 20.09. 11:00 8(1200m)
Fr, 20.09. 10:30 8(1230m)
Fr, 20.09. 10:00 8(1260m)
Ortszeit Luftdruck NN (hPa) Tendenz (hPa in 3 Std.)
Fr, 20.09. 8:00 1029 - 0,5
Fr, 20.09. 2:00 1030 - 0,6
Do, 19.09. 20:00 1029 + 0,6
Do, 19.09. 14:00 1029 + 0,5
Do, 19.09. 8:00 1027 + 1,1
Do, 19.09. 2:00 1026 + 0,6
Mi, 18.09. 20:00 1024 + 0,4
Mi, 18.09. 14:00 1024 + 0,2
Ortszeit Luftdruck NN (hPa) Tendenz (hPa in 3 Std.)
Fr, 20.09. 13:00 1029 - 0,2
Fr, 20.09. 12:50 1029 keine Meldung
Fr, 20.09. 12:40 1029 keine Meldung
Fr, 20.09. 12:30 1029 - 0,2
Fr, 20.09. 12:20 1029 keine Meldung
Fr, 20.09. 12:10 1029 keine Meldung
Fr, 20.09. 12:00 1029 + 0,1
Fr, 20.09. 11:30 1029 + 0,1
Fr, 20.09. 11:00 1029 + 0,3
Fr, 20.09. 10:30 1029 + 0,5
Fr, 20.09. 10:00 1029 + 0,5
Ortszeit Schneehöhe (cm)
Fr, 20.09. 8:00 -
Fr, 20.09. 2:00 -
Do, 19.09. 20:00 -
Do, 19.09. 14:00 -
Do, 19.09. 8:00 -
Do, 19.09. 2:00 -
Mi, 18.09. 20:00 -
Mi, 18.09. 14:00 -
Ortszeit Schneehöhe (cm)
Fr, 20.09. 13:00 -
Fr, 20.09. 12:50 -
Fr, 20.09. 12:40 -
Fr, 20.09. 12:30 -
Fr, 20.09. 12:20 -
Fr, 20.09. 12:10 -
Fr, 20.09. 12:00 -
Fr, 20.09. 11:30 -
Fr, 20.09. 11:00 -
Fr, 20.09. 10:30 -
Fr, 20.09. 10:00 -
Link zu dieser Seite / Seite empfehlen

Das Wetter in ...